Time;durP1;ratioP1;P1;durP2;ratioP2;P2;SDS_P1;SDS_P2;PMS_P1;PMS_P2;Temp;Humidity;BMP_temperature;BMP_pressure;BME280_temperature;BME280_humidity;BME280_pressure;Samples;Min_cycle;Max_cycle;Signal;HPM_P1;HPM_P2
2021/03/06 05:46:44;;;;;;;4.53;2.30;;;;;;;;;;6197568;22;910612;-78
2021/03/06 05:49:10;;;;;;;3.55;2.10;;;;;;;;;;6248177;23;20012;-78
2021/03/06 05:51:37;;;;;;;6.53;2.53;;;;;;;;;;6248282;23;20373;-78
2021/03/06 05:54:07;;;;;;;4.90;2.13;;;;;;;;;;6246089;23;20004;-78
2021/03/06 05:56:38;;;;;;;3.50;1.73;;;;;;;;;;6228641;23;20014;-78
2021/03/06 05:59:04;;;;;;;6.50;3.42;;;;;;;;;;6217675;23;20047;-78
2021/03/06 06:01:30;;;;;;;5.18;2.20;;;;;;;;;;6231458;22;20016;-81
2021/03/06 06:03:57;;;;;;;4.13;2.13;;;;;;;;;;6217408;23;20004;-80
2021/03/06 06:06:23;;;;;;;4.07;2.30;;;;;;;;;;6218218;23;20050;-80
2021/03/06 06:08:49;;;;;;;7.03;3.25;;;;;;;;;;6244836;23;20027;-80
2021/03/06 06:11:15;;;;;;;4.65;2.50;;;;;;;;;;6217693;23;20649;-81
2021/03/06 06:13:40;;;;;;;3.88;2.15;;;;;;;;;;6217810;23;20050;-80
2021/03/06 06:16:06;;;;;;;5.30;2.30;;;;;;;;;;6217915;23;20012;-80
2021/03/06 06:18:32;;;;;;;4.32;2.00;;;;;;;;;;6245220;23;20209;-79
2021/03/06 06:20:58;;;;;;;6.30;2.45;;;;;;;;;;6217848;23;20004;-80
2021/03/06 06:23:23;;;;;;;5.95;2.22;;;;;;;;;;6245039;23;20445;-80
2021/03/06 06:25:49;;;;;;;4.60;2.00;;;;;;;;;;6245558;23;20544;-80
2021/03/06 06:28:15;;;;;;;5.75;2.47;;;;;;;;;;6245251;23;20046;-80
2021/03/06 06:30:40;;;;;;;5.13;2.35;;;;;;;;;;6244731;22;20330;-80
2021/03/06 06:33:06;;;;;;;4.57;2.47;;;;;;;;;;6217811;23;20091;-80
2021/03/06 06:35:41;;;;;;;5.07;2.40;;;;;;;;;;6244283;23;20007;-80
2021/03/06 06:38:08;;;;;;;4.38;3.00;;;;;;;;;;6244217;23;20004;-80
2021/03/06 06:40:35;;;;;;;5.93;2.38;;;;;;;;;;6245108;22;19996;-80
2021/03/06 06:43:01;;;;;;;4.15;2.40;;;;;;;;;;6244285;22;20011;-80
2021/03/06 06:45:37;;;;;;;5.32;1.85;;;;;;;;;;6216975;23;20099;-80
2021/03/06 06:48:09;;;;;;;5.10;2.05;;;;;;;;;;6217656;23;20438;-80
2021/03/06 06:50:35;;;;;;;3.38;2.10;;;;;;;;;;6244960;22;20034;-81
2021/03/06 06:53:01;;;;;;;4.07;2.25;;;;;;;;;;6244504;23;20513;-80
2021/03/06 06:55:34;;;;;;;8.30;2.20;;;;;;;;;;6217352;23;20099;-80
2021/03/06 06:58:00;;;;;;;5.63;2.78;;;;;;;;;;6219477;23;20011;-80
2021/03/06 07:00:28;;;;;;;4.60;2.10;;;;;;;;;;6217581;22;20023;-80
2021/03/06 07:05:11;;;;;;;4.50;2.40;;;;;;;;;;5121459;27;20350;-81
2021/03/06 07:07:41;;;;;;;7.28;3.08;;;;;;;;;;5112928;27;20027;-81
2021/03/06 07:10:08;;;;;;;4.82;2.50;;;;;;;;;;5120292;28;20061;-82
2021/03/06 07:12:35;;;;;;;5.72;2.08;;;;;;;;;;5114059;27;20030;-82
2021/03/06 07:15:02;;;;;;;7.65;2.35;;;;;;;;;;5121830;28;20027;-81
2021/03/06 07:17:38;;;;;;;4.78;2.30;;;;;;;;;;5106941;27;20026;-82
2021/03/06 07:20:04;;;;;;;5.75;3.35;;;;;;;;;;5108892;28;20022;-81
2021/03/06 07:22:31;;;;;;;5.03;2.17;;;;;;;;;;5108540;28;20024;-81
2021/03/06 07:24:56;;;;;;;7.28;3.30;;;;;;;;;;5108577;28;20020;-81
2021/03/06 07:27:22;;;;;;;7.35;3.38;;;;;;;;;;5112491;28;20032;-82
2021/03/06 07:29:48;;;;;;;6.03;2.55;;;;;;;;;;5113823;28;20024;-81
2021/03/06 07:32:15;;;;;;;5.38;2.42;;;;;;;;;;5102045;28;20025;-81
2021/03/06 07:34:41;;;;;;;7.15;2.63;;;;;;;;;;5113033;28;20019;-82
2021/03/06 07:37:07;;;;;;;6.35;2.58;;;;;;;;;;5118021;28;20029;-82
2021/03/06 07:39:40;;;;;;;6.05;3.10;;;;;;;;;;5120521;28;20558;-81
2021/03/06 07:42:29;;;;;;;5.88;3.13;;;;;;;;;;5105908;28;20051;-82
2021/03/06 07:44:55;;;;;;;5.80;3.30;;;;;;;;;;5094518;28;20031;-81
2021/03/06 07:47:24;;;;;;;7.00;4.05;;;;;;;;;;5105687;28;20028;-82
2021/03/06 07:52:09;;;;;;;8.75;4.28;;;;;;;;;;5092499;27;20776;-81
2021/03/06 07:54:36;;;;;;;6.35;3.20;;;;;;;;;;5065832;28;20028;-81
2021/03/06 07:57:02;;;;;;;7.55;3.90;;;;;;;;;;5064506;28;20056;-81
2021/03/06 07:59:47;;;;;;;10.18;4.40;;;;;;;;;;5070034;28;20056;-82
2021/03/06 08:02:32;;;;;;;9.20;4.43;;;;;;;;;;5066568;28;20102;-82
2021/03/06 08:04:58;;;;;;;5.75;2.88;;;;;;;;;;5068648;28;20024;-81
2021/03/06 08:07:37;;;;;;;10.88;3.75;;;;;;;;;;5070224;28;20024;-81
2021/03/06 08:10:03;;;;;;;16.70;4.22;;;;;;;;;;5070143;28;20021;-81
2021/03/06 08:12:32;;;;;;;6.47;3.35;;;;;;;;;;5071198;28;20029;-82
2021/03/06 08:14:58;;;;;;;7.97;3.97;;;;;;;;;;5068716;28;20024;-82
2021/03/06 08:17:31;;;;;;;11.07;3.67;;;;;;;;;;5067683;28;20021;-82
2021/03/06 08:19:56;;;;;;;5.43;2.70;;;;;;;;;;5069980;28;20485;-81
2021/03/06 08:22:22;;;;;;;6.18;2.92;;;;;;;;;;5068987;28;20052;-82
2021/03/06 08:24:48;;;;;;;4.97;2.83;;;;;;;;;;5070509;28;20017;-81
2021/03/06 08:27:14;;;;;;;5.50;2.60;;;;;;;;;;5069798;28;20021;-82
2021/03/06 08:29:43;;;;;;;5.07;3.30;;;;;;;;;;5073623;28;20028;-82
2021/03/06 08:32:15;;;;;;;11.23;3.17;;;;;;;;;;5069105;28;20053;-81
2021/03/06 08:34:53;;;;;;;4.50;2.67;;;;;;;;;;5072041;28;20060;-81
2021/03/06 08:37:19;;;;;;;4.82;3.13;;;;;;;;;;5066340;28;20086;-82
2021/03/06 08:39:57;;;;;;;8.52;3.03;;;;;;;;;;5070163;28;20024;-81
2021/03/06 08:42:24;;;;;;;7.18;3.58;;;;;;;;;;5066756;28;20017;-82
2021/03/06 08:44:51;;;;;;;6.10;2.70;;;;;;;;;;5069303;28;20059;-81
2021/03/06 08:47:31;;;;;;;5.10;2.83;;;;;;;;;;5063963;28;20637;-81
2021/03/06 08:49:57;;;;;;;4.70;2.92;;;;;;;;;;5068088;28;20013;-81
2021/03/06 08:52:24;;;;;;;7.65;3.47;;;;;;;;;;5073039;28;20024;-82
2021/03/06 08:54:50;;;;;;;7.25;3.88;;;;;;;;;;5072069;28;20024;-82
2021/03/06 08:57:22;;;;;;;7.07;3.72;;;;;;;;;;5073087;28;20032;-82
2021/03/06 08:59:48;;;;;;;4.88;3.22;;;;;;;;;;5073024;28;20082;-86
2021/03/06 09:02:18;;;;;;;7.13;3.45;;;;;;;;;;5065327;28;20029;-83
2021/03/06 09:04:46;;;;;;;8.00;3.30;;;;;;;;;;5069075;28;20020;-83
2021/03/06 09:07:24;;;;;;;7.15;3.53;;;;;;;;;;5074061;28;20047;-84
2021/03/06 09:09:50;;;;;;;6.70;3.25;;;;;;;;;;5075976;28;20017;-84
2021/03/06 09:12:16;;;;;;;6.13;3.40;;;;;;;;;;5073651;28;20112;-83
2021/03/06 09:14:41;;;;;;;6.35;3.10;;;;;;;;;;5073844;28;20062;-83
2021/03/06 09:17:10;;;;;;;6.43;3.47;;;;;;;;;;5073388;28;20021;-83
2021/03/06 09:19:36;;;;;;;6.57;3.40;;;;;;;;;;5068646;28;20013;-84
2021/03/06 09:22:03;;;;;;;6.03;3.28;;;;;;;;;;5063732;28;20043;-83
2021/03/06 09:24:45;;;;;;;5.68;3.25;;;;;;;;;;5069253;28;20056;-83
2021/03/06 09:27:11;;;;;;;7.72;3.78;;;;;;;;;;5074300;28;20024;-84
2021/03/06 09:29:37;;;;;;;8.45;3.50;;;;;;;;;;5065728;28;20031;-87
2021/03/06 09:32:03;;;;;;;7.05;3.33;;;;;;;;;;5068271;28;20028;-86
2021/03/06 09:34:28;;;;;;;8.32;3.85;;;;;;;;;;5065745;28;20493;-87
2021/03/06 09:36:54;;;;;;;5.07;3.03;;;;;;;;;;5063016;28;20032;-85
2021/03/06 09:39:25;;;;;;;6.20;3.33;;;;;;;;;;5054932;28;20545;-87
2021/03/06 09:44:26;;;;;;;9.13;3.60;;;;;;;;;;5352056;22;20044;-87
2021/03/06 09:46:52;;;;;;;6.90;3.40;;;;;;;;;;5053155;28;20031;-87
2021/03/06 09:49:18;;;;;;;7.03;3.03;;;;;;;;;;5050092;28;20035;-87
2021/03/06 09:51:48;;;;;;;6.18;3.70;;;;;;;;;;5049300;28;20024;-87
2021/03/06 09:54:15;;;;;;;6.15;3.10;;;;;;;;;;5044826;28;20018;-87
2021/03/06 09:56:51;;;;;;;7.25;3.65;;;;;;;;;;5047183;28;20028;-87
2021/03/06 09:59:17;;;;;;;6.82;3.35;;;;;;;;;;5055858;28;20047;-89
2021/03/06 10:01:42;;;;;;;6.03;3.50;;;;;;;;;;5054507;28;20473;-88
2021/03/06 10:04:09;;;;;;;8.15;3.53;;;;;;;;;;5057390;28;20483;-90
2021/03/06 10:06:36;;;;;;;5.85;3.17;;;;;;;;;;5058349;28;20021;-88
2021/03/06 10:09:04;;;;;;;5.93;3.40;;;;;;;;;;5054897;28;20024;-87
2021/03/06 10:11:34;;;;;;;6.93;4.03;;;;;;;;;;5045276;28;20029;-88
2021/03/06 10:14:00;;;;;;;6.32;3.90;;;;;;;;;;5043210;28;20024;-88
2021/03/06 10:49:43;;;;;;;7.95;3.30;;;;;;;;;;6312777;22;20763;-84
2021/03/06 10:52:22;;;;;;;5.57;3.03;;;;;;;;;;6311039;22;20022;-84
2021/03/06 10:54:48;;;;;;;4.25;2.65;;;;;;;;;;6310902;22;20003;-84
2021/03/06 10:57:14;;;;;;;5.07;3.30;;;;;;;;;;6311051;22;19999;-85
2021/03/06 10:59:40;;;;;;;5.13;3.03;;;;;;;;;;6311017;22;20042;-85
2021/03/06 11:02:06;;;;;;;4.55;2.88;;;;;;;;;;6311198;22;20090;-85
2021/03/06 11:04:36;;;;;;;3.95;2.58;;;;;;;;;;6310861;22;20048;-85
2021/03/06 11:07:03;;;;;;;7.50;3.47;;;;;;;;;;6311459;22;19999;-85
2021/03/06 11:09:32;;;;;;;4.05;2.67;;;;;;;;;;6311050;22;20030;-86
2021/03/06 11:12:14;;;;;;;4.38;2.78;;;;;;;;;;6310991;22;20333;-85
2021/03/06 11:14:40;;;;;;;4.22;2.95;;;;;;;;;;6311331;22;20037;-85
2021/03/06 11:17:05;;;;;;;4.22;2.65;;;;;;;;;;6311517;22;20713;-85
2021/03/06 11:19:31;;;;;;;5.50;2.78;;;;;;;;;;6312568;22;20023;-86
2021/03/06 11:24:17;;;;;;;5.40;2.78;;;;;;;;;;5159041;27;20357;-86
2021/03/06 11:26:43;;;;;;;6.38;2.80;;;;;;;;;;5117155;27;20024;-87
2021/03/06 11:29:09;;;;;;;3.80;2.50;;;;;;;;;;5115360;28;20046;-87
2021/03/06 11:31:38;;;;;;;4.05;2.58;;;;;;;;;;5116819;28;20115;-87
2021/03/06 11:34:06;;;;;;;5.93;2.58;;;;;;;;;;5116008;28;20020;-88
2021/03/06 11:36:32;;;;;;;6.75;2.55;;;;;;;;;;5111448;28;20051;-88
2021/03/06 11:38:58;;;;;;;5.95;3.13;;;;;;;;;;5116499;28;20026;-88
2021/03/06 11:41:23;;;;;;;5.72;2.28;;;;;;;;;;5115524;28;20034;-87
2021/03/06 11:43:49;;;;;;;8.93;3.25;;;;;;;;;;5116519;28;20042;-87
2021/03/06 11:46:15;;;;;;;6.93;3.10;;;;;;;;;;5117830;28;20038;-88
2021/03/06 11:48:40;;;;;;;4.07;2.45;;;;;;;;;;5114988;28;20489;-88
2021/03/06 11:51:06;;;;;;;5.63;2.90;;;;;;;;;;5119344;28;20029;-88
2021/03/06 11:53:32;;;;;;;3.95;2.88;;;;;;;;;;5114326;28;20455;-87
2021/03/06 11:55:58;;;;;;;5.22;2.65;;;;;;;;;;5113395;28;20020;-88
2021/03/06 11:58:23;;;;;;;5.03;2.80;;;;;;;;;;5126615;28;20031;-88
2021/03/06 12:00:49;;;;;;;5.55;2.70;;;;;;;;;;5114941;28;20039;-87
2021/03/06 12:03:14;;;;;;;6.32;2.58;;;;;;;;;;5114152;28;20034;-88
2021/03/06 12:05:40;;;;;;;4.63;2.95;;;;;;;;;;5112488;28;20464;-87
2021/03/06 12:08:06;;;;;;;3.83;2.30;;;;;;;;;;5115557;28;20016;-87
2021/03/06 12:10:33;;;;;;;6.75;2.42;;;;;;;;;;5113823;28;20040;-88
2021/03/06 12:12:59;;;;;;;5.75;2.70;;;;;;;;;;5110736;28;20031;-87
2021/03/06 12:17:53;;;;;;;5.03;2.38;;;;;;;;;;5084053;28;20049;-81
2021/03/06 12:20:19;;;;;;;4.60;2.38;;;;;;;;;;5084814;28;20222;-80
2021/03/06 12:22:48;;;;;;;4.93;2.10;;;;;;;;;;5085700;28;20044;-81
2021/03/06 12:25:14;;;;;;;6.47;2.72;;;;;;;;;;5088348;28;20035;-82
2021/03/06 12:27:40;;;;;;;3.33;2.13;;;;;;;;;;5079164;28;20606;-82
2021/03/06 12:30:08;;;;;;;3.70;2.50;;;;;;;;;;5088115;28;20074;-82
2021/03/06 12:32:34;;;;;;;6.47;2.15;;;;;;;;;;5085337;28;20051;-82
2021/03/06 12:35:00;;;;;;;4.28;2.30;;;;;;;;;;5064600;28;20016;-82
2021/03/06 12:37:25;;;;;;;5.05;2.67;;;;;;;;;;5075031;28;20030;-82
2021/03/06 12:39:51;;;;;;;4.30;2.65;;;;;;;;;;5074750;28;20029;-81
2021/03/06 12:42:17;;;;;;;5.43;2.60;;;;;;;;;;5075116;28;20033;-82
2021/03/06 12:44:42;;;;;;;4.25;2.42;;;;;;;;;;5074441;28;20089;-81
2021/03/06 12:47:08;;;;;;;4.63;2.70;;;;;;;;;;5073386;28;20016;-80
2021/03/06 12:49:34;;;;;;;4.32;2.80;;;;;;;;;;5071151;28;20020;-80
2021/03/06 12:52:00;;;;;;;6.18;2.55;;;;;;;;;;5070098;28;20020;-80
2021/03/06 12:54:26;;;;;;;3.90;2.33;;;;;;;;;;5071587;28;20032;-81
2021/03/06 12:56:52;;;;;;;7.28;2.80;;;;;;;;;;5073014;28;20070;-80
2021/03/06 13:01:36;;;;;;;4.25;2.10;;;;;;;;;;5120718;27;20355;-79
2021/03/06 13:04:02;;;;;;;5.53;3.03;;;;;;;;;;5105353;28;20078;-80
2021/03/06 13:06:27;;;;;;;6.60;2.65;;;;;;;;;;5106232;28;20024;-79
2021/03/06 13:08:53;;;;;;;4.28;2.10;;;;;;;;;;5094495;28;20012;-81
2021/03/06 13:11:19;;;;;;;6.20;2.50;;;;;;;;;;5093238;28;20125;-79
2021/03/06 13:16:04;;;;;;;4.65;2.35;;;;;;;;;;5106894;27;20384;-81
2021/03/06 13:18:29;;;;;;;4.07;2.40;;;;;;;;;;5112812;28;20077;-81
2021/03/06 13:20:55;;;;;;;3.72;2.53;;;;;;;;;;5121227;28;20102;-80
2021/03/06 13:23:21;;;;;;;5.82;2.22;;;;;;;;;;5115727;27;20507;-82
2021/03/06 13:25:47;;;;;;;5.05;2.28;;;;;;;;;;5096868;28;20034;-80
2021/03/06 13:28:13;;;;;;;4.22;2.25;;;;;;;;;;5101933;28;20356;-80
2021/03/06 13:30:39;;;;;;;3.70;2.22;;;;;;;;;;5119410;28;20074;-84
2021/03/06 13:33:05;;;;;;;3.88;2.17;;;;;;;;;;5113361;28;20032;-83
2021/03/06 13:35:31;;;;;;;3.55;1.73;;;;;;;;;;5114798;28;20102;-84
2021/03/06 13:37:57;;;;;;;4.22;2.50;;;;;;;;;;5113108;27;20032;-84
2021/03/06 13:40:22;;;;;;;6.95;2.80;;;;;;;;;;5102403;28;20687;-85
2021/03/06 13:42:48;;;;;;;5.65;2.65;;;;;;;;;;5112753;28;20020;-84
2021/03/06 13:45:14;;;;;;;4.75;2.33;;;;;;;;;;5113590;28;20110;-85
2021/03/06 13:47:40;;;;;;;6.20;2.58;;;;;;;;;;5121847;28;20071;-85
2021/03/06 13:50:07;;;;;;;4.57;2.70;;;;;;;;;;5118915;28;20028;-86
2021/03/06 13:52:33;;;;;;;7.03;2.50;;;;;;;;;;5104929;28;20024;-86
2021/03/06 13:54:58;;;;;;;4.47;2.88;;;;;;;;;;5119147;28;20372;-86
2021/03/06 13:57:24;;;;;;;5.28;2.17;;;;;;;;;;5096296;28;20034;-86
2021/03/06 14:02:25;;;;;;;11.02;2.42;;;;;;;;;;5123767;27;20358;-88
2021/03/06 14:04:51;;;;;;;4.53;2.50;;;;;;;;;;5090465;28;20059;-89
2021/03/06 14:07:16;;;;;;;5.32;2.78;;;;;;;;;;5091912;28;20024;-88
2021/03/06 14:09:42;;;;;;;4.50;2.10;;;;;;;;;;5087861;28;20039;-89
2021/03/06 14:12:08;;;;;;;4.53;2.50;;;;;;;;;;5086051;28;20496;-88
2021/03/06 14:14:34;;;;;;;4.57;2.25;;;;;;;;;;5085476;28;20480;-88
2021/03/06 14:17:00;;;;;;;5.15;1.80;;;;;;;;;;5085840;28;20038;-88
2021/03/06 14:19:26;;;;;;;5.15;2.13;;;;;;;;;;5095340;28;20008;-86
2021/03/06 14:21:52;;;;;;;5.32;2.70;;;;;;;;;;5090612;28;20446;-89
2021/03/06 14:24:17;;;;;;;5.43;3.30;;;;;;;;;;5085115;28;20040;-88
2021/03/06 14:26:43;;;;;;;4.75;2.40;;;;;;;;;;5082538;28;20019;-88
2021/03/06 14:29:09;;;;;;;4.97;3.28;;;;;;;;;;5093863;28;20021;-88
2021/03/06 14:31:34;;;;;;;5.28;2.47;;;;;;;;;;5080109;28;20043;-88
2021/03/06 14:34:03;;;;;;;6.75;3.50;;;;;;;;;;5073428;28;20032;-87
2021/03/06 14:36:29;;;;;;;5.90;3.25;;;;;;;;;;5076008;28;20052;-89
2021/03/06 14:38:55;;;;;;;7.00;2.90;;;;;;;;;;5082627;28;20099;-89
2021/03/06 14:41:20;;;;;;;7.03;3.28;;;;;;;;;;5074126;28;20019;-88
2021/03/06 14:43:46;;;;;;;7.00;3.25;;;;;;;;;;5074775;28;20026;-89
2021/03/06 14:46:12;;;;;;;5.53;2.35;;;;;;;;;;5071614;28;20376;-89
2021/03/06 14:48:37;;;;;;;4.72;2.60;;;;;;;;;;5079615;28;20031;-89
2021/03/06 14:51:03;;;;;;;5.90;2.40;;;;;;;;;;5070062;28;20124;-88
2021/03/06 14:53:32;;;;;;;5.55;2.53;;;;;;;;;;5068689;28;20028;-88
2021/03/06 14:58:30;;;;;;;4.40;2.80;;;;;;;;;;5099220;27;20427;-89
2021/03/06 15:00:55;;;;;;;5.85;2.90;;;;;;;;;;5068658;28;20549;-89
2021/03/06 15:03:21;;;;;;;5.00;2.17;;;;;;;;;;5049408;28;20396;-88
2021/03/06 15:05:47;;;;;;;4.90;2.78;;;;;;;;;;5059533;28;20035;-89
2021/03/06 15:08:12;;;;;;;5.40;2.30;;;;;;;;;;5051796;28;20031;-89
2021/03/06 15:10:40;;;;;;;4.43;2.20;;;;;;;;;;5067183;28;20041;-89
2021/03/06 15:13:06;;;;;;;3.78;2.30;;;;;;;;;;5054260;28;20021;-88
2021/03/06 15:15:31;;;;;;;3.75;2.22;;;;;;;;;;5065354;28;20514;-88
2021/03/06 15:17:59;;;;;;;5.88;2.78;;;;;;;;;;5056749;28;20399;-88
2021/03/06 15:20:25;;;;;;;4.38;2.30;;;;;;;;;;5048916;28;20025;-89
2021/03/06 15:22:50;;;;;;;4.90;2.55;;;;;;;;;;5046713;28;20396;-88
2021/03/06 15:25:16;;;;;;;4.70;2.42;;;;;;;;;;5046525;28;20035;-88
2021/03/06 15:27:42;;;;;;;4.45;2.63;;;;;;;;;;5052879;28;20039;-89
2021/03/06 15:30:07;;;;;;;5.18;2.70;;;;;;;;;;5064771;28;20392;-89
2021/03/06 15:32:33;;;;;;;5.43;2.50;;;;;;;;;;5067865;28;20025;-89
2021/03/06 15:35:02;;;;;;;6.35;2.42;;;;;;;;;;5077281;28;20437;-89
2021/03/06 15:37:28;;;;;;;5.13;3.03;;;;;;;;;;5072528;28;20025;-87
2021/03/06 15:39:54;;;;;;;4.05;2.10;;;;;;;;;;5071136;28;20032;-87
2021/03/06 15:42:20;;;;;;;4.65;2.60;;;;;;;;;;5072599;28;20025;-88
2021/03/06 15:44:46;;;;;;;5.15;2.45;;;;;;;;;;5078095;28;20148;-89
2021/03/06 15:47:12;;;;;;;5.40;2.03;;;;;;;;;;5074301;28;20021;-89
2021/03/06 15:49:37;;;;;;;3.70;1.92;;;;;;;;;;5079477;28;20035;-89
2021/03/06 15:52:03;;;;;;;3.35;1.83;;;;;;;;;;5076990;28;20016;-89
2021/03/06 15:54:29;;;;;;;3.83;2.22;;;;;;;;;;5079748;28;20036;-88
2021/03/06 15:56:54;;;;;;;5.22;2.35;;;;;;;;;;5072570;28;20020;-88
2021/03/06 15:59:20;;;;;;;3.67;2.15;;;;;;;;;;5070370;28;20139;-88
2021/03/06 16:01:46;;;;;;;5.10;2.85;;;;;;;;;;5077784;28;20012;-89
2021/03/06 16:04:11;;;;;;;9.13;5.18;;;;;;;;;;5074539;28;20021;-88
2021/03/06 16:06:37;;;;;;;36.35;17.73;;;;;;;;;;5069663;28;20033;-88
2021/03/06 16:09:03;;;;;;;11.68;7.13;;;;;;;;;;5059457;28;20410;-87
2021/03/06 16:11:28;;;;;;;4.60;2.50;;;;;;;;;;5056142;28;20119;-90
2021/03/06 16:13:54;;;;;;;20.05;9.98;;;;;;;;;;5058017;28;20027;-89
2021/03/06 16:29:03;;;;;;;59.33;30.95;;;;;;;;;;5095326;27;20399;-81
2021/03/06 16:31:29;;;;;;;23.02;11.20;;;;;;;;;;5083090;28;20105;-81
2021/03/06 16:33:57;;;;;;;25.85;13.82;;;;;;;;;;5090546;28;20048;-81
2021/03/06 16:36:22;;;;;;;33.25;20.50;;;;;;;;;;5091792;28;20131;-81
2021/03/06 16:38:50;;;;;;;13.27;9.48;;;;;;;;;;5093310;28;20027;-83
2021/03/06 16:41:16;;;;;;;5.97;3.58;;;;;;;;;;5095302;28;20056;-83
2021/03/06 16:43:42;;;;;;;5.03;2.90;;;;;;;;;;5077598;28;20024;-83
2021/03/06 16:46:07;;;;;;;4.45;3.05;;;;;;;;;;5081557;28;20470;-83
2021/03/06 16:48:33;;;;;;;9.57;5.80;;;;;;;;;;5080534;28;20028;-83
2021/03/06 16:50:59;;;;;;;6.50;3.92;;;;;;;;;;5079517;28;20020;-83
2021/03/06 16:53:25;;;;;;;6.30;4.28;;;;;;;;;;5076695;28;20039;-83
2021/03/06 16:55:50;;;;;;;9.70;6.22;;;;;;;;;;5077711;28;20042;-83
2021/03/06 16:58:16;;;;;;;21.60;11.63;;;;;;;;;;5071256;28;20030;-83
2021/03/06 17:00:42;;;;;;;10.35;5.90;;;;;;;;;;5090427;28;20031;-83
2021/03/06 17:03:07;;;;;;;6.63;3.65;;;;;;;;;;5085840;28;20025;-84
2021/03/06 17:05:33;;;;;;;5.38;2.78;;;;;;;;;;5080391;28;20028;-83
2021/03/06 17:07:59;;;;;;;5.07;3.17;;;;;;;;;;5077488;28;20082;-83
2021/03/06 17:10:25;;;;;;;6.88;3.97;;;;;;;;;;5074355;28;20395;-84
2021/03/06 17:12:50;;;;;;;6.95;3.92;;;;;;;;;;5078345;28;20032;-83
2021/03/06 17:15:16;;;;;;;8.00;4.03;;;;;;;;;;5080464;28;20024;-84
2021/03/06 17:17:42;;;;;;;7.68;3.33;;;;;;;;;;5085915;28;20023;-83
2021/03/06 17:20:08;;;;;;;6.32;2.50;;;;;;;;;;5073320;28;20024;-83
2021/03/06 17:22:34;;;;;;;6.35;3.20;;;;;;;;;;5074719;28;20024;-83
2021/03/06 17:25:00;;;;;;;4.68;2.72;;;;;;;;;;5078599;28;20034;-84
2021/03/06 17:27:25;;;;;;;8.68;4.88;;;;;;;;;;5071462;28;20037;-83
2021/03/06 17:29:51;;;;;;;8.35;4.32;;;;;;;;;;5058629;28;20028;-83
2021/03/06 17:32:17;;;;;;;7.82;4.32;;;;;;;;;;5075308;28;20024;-83
2021/03/06 17:34:43;;;;;;;5.90;3.42;;;;;;;;;;5061277;28;20024;-83
2021/03/06 17:37:09;;;;;;;7.07;3.88;;;;;;;;;;5060674;28;20039;-83
2021/03/06 17:39:35;;;;;;;8.30;3.22;;;;;;;;;;5073053;28;20420;-83
2021/03/06 17:42:01;;;;;;;6.18;3.42;;;;;;;;;;5064684;28;20057;-83
2021/03/06 17:44:26;;;;;;;24.52;12.30;;;;;;;;;;5066137;28;20032;-82
2021/03/06 17:46:52;;;;;;;62.40;29.63;;;;;;;;;;5066706;28;20098;-83
2021/03/06 17:49:18;;;;;;;15.35;8.90;;;;;;;;;;5065812;28;20092;-83
2021/03/06 17:51:45;;;;;;;5.85;3.50;;;;;;;;;;5068426;28;20557;-82
2021/03/06 17:54:11;;;;;;;7.10;4.13;;;;;;;;;;5057779;28;20370;-80
2021/03/06 17:56:36;;;;;;;6.28;3.38;;;;;;;;;;5060508;28;20033;-79
2021/03/06 17:59:02;;;;;;;6.65;3.20;;;;;;;;;;5062175;28;20028;-79
2021/03/06 18:01:28;;;;;;;7.15;3.88;;;;;;;;;;5058769;28;20067;-78
2021/03/06 18:03:54;;;;;;;5.95;2.65;;;;;;;;;;5069373;28;20462;-79
2021/03/06 18:06:20;;;;;;;6.53;3.08;;;;;;;;;;5056104;28;20394;-79
2021/03/06 18:08:46;;;;;;;9.82;6.68;;;;;;;;;;5063640;28;20016;-79
2021/03/06 18:11:12;;;;;;;7.45;4.90;;;;;;;;;;5057045;28;20048;-80
2021/03/06 18:13:37;;;;;;;6.47;4.40;;;;;;;;;;5057773;28;20078;-80
2021/03/06 18:16:03;;;;;;;8.38;4.55;;;;;;;;;;5062912;28;20051;-79
2021/03/06 18:18:29;;;;;;;5.32;3.65;;;;;;;;;;5058948;28;20517;-77
2021/03/06 18:20:55;;;;;;;9.13;3.88;;;;;;;;;;5062151;28;20029;-80
2021/03/06 18:23:20;;;;;;;5.63;2.85;;;;;;;;;;5051812;28;20391;-80
2021/03/06 18:25:46;;;;;;;4.57;3.05;;;;;;;;;;5057647;28;20029;-80
2021/03/06 18:28:13;;;;;;;4.72;3.10;;;;;;;;;;5058632;28;20059;-80
2021/03/06 18:30:38;;;;;;;4.55;2.72;;;;;;;;;;5052602;28;20051;-79
2021/03/06 18:33:04;;;;;;;6.63;3.53;;;;;;;;;;5054416;28;20025;-79
2021/03/06 18:35:30;;;;;;;7.18;3.40;;;;;;;;;;5057769;28;20050;-80
2021/03/06 18:37:56;;;;;;;5.50;3.03;;;;;;;;;;5078918;28;20089;-80
2021/03/06 18:40:22;;;;;;;6.57;3.38;;;;;;;;;;5062219;28;20717;-79
2021/03/06 18:42:48;;;;;;;7.18;4.47;;;;;;;;;;5068135;28;20051;-80
2021/03/06 18:45:15;;;;;;;50.05;33.40;;;;;;;;;;5070105;28;20039;-81
2021/03/06 18:47:41;;;;;;;36.65;24.13;;;;;;;;;;5063178;28;20112;-80
2021/03/06 18:50:07;;;;;;;30.77;21.15;;;;;;;;;;5067874;28;20047;-80
2021/03/06 18:52:33;;;;;;;21.98;13.48;;;;;;;;;;5064141;28;20079;-80
2021/03/06 18:54:58;;;;;;;16.58;10.40;;;;;;;;;;5067408;28;20033;-80
2021/03/06 18:57:25;;;;;;;10.15;6.78;;;;;;;;;;5067094;28;20032;-80
2021/03/06 18:59:51;;;;;;;8.25;5.20;;;;;;;;;;5064939;28;20025;-80
2021/03/06 19:02:16;;;;;;;8.45;4.85;;;;;;;;;;5063431;28;20025;-79
2021/03/06 19:04:42;;;;;;;8.05;4.80;;;;;;;;;;5061602;28;20579;-81
2021/03/06 19:07:08;;;;;;;5.97;3.15;;;;;;;;;;5061135;28;20028;-81
2021/03/06 19:09:33;;;;;;;4.57;2.38;;;;;;;;;;5062963;28;20116;-81
2021/03/06 19:11:59;;;;;;;6.13;3.65;;;;;;;;;;5064426;28;20021;-80
2021/03/06 19:14:25;;;;;;;5.45;3.20;;;;;;;;;;5061945;28;20428;-79
2021/03/06 19:16:51;;;;;;;5.95;3.55;;;;;;;;;;5058686;28;20051;-81
2021/03/06 19:19:16;;;;;;;12.35;7.07;;;;;;;;;;5057281;28;20033;-81
2021/03/06 19:21:42;;;;;;;8.35;5.32;;;;;;;;;;5066646;28;20024;-81
2021/03/06 19:24:08;;;;;;;8.32;4.88;;;;;;;;;;5064682;28;20025;-81
2021/03/06 19:26:34;;;;;;;8.27;5.15;;;;;;;;;;5066765;28;20041;-82
2021/03/06 19:29:00;;;;;;;17.52;11.80;;;;;;;;;;5061304;28;20039;-81
2021/03/06 19:31:25;;;;;;;11.88;7.45;;;;;;;;;;5058790;28;20028;-80
2021/03/06 19:33:51;;;;;;;9.80;6.40;;;;;;;;;;5064026;28;20023;-81
2021/03/06 19:36:18;;;;;;;9.68;5.68;;;;;;;;;;5055346;28;20031;-80
2021/03/06 19:38:44;;;;;;;6.82;4.20;;;;;;;;;;5057767;28;20638;-81
2021/03/06 19:41:10;;;;;;;9.80;5.93;;;;;;;;;;5056777;28;20032;-79
2021/03/06 19:43:36;;;;;;;7.03;4.25;;;;;;;;;;5072049;28;20119;-80
2021/03/06 19:46:02;;;;;;;7.05;4.00;;;;;;;;;;5069940;28;20056;-79
2021/03/06 19:48:28;;;;;;;5.85;3.55;;;;;;;;;;5057085;28;20065;-81
2021/03/06 19:50:54;;;;;;;9.82;4.65;;;;;;;;;;5058457;28;20024;-78
2021/03/06 19:53:20;;;;;;;10.55;6.13;;;;;;;;;;5055555;28;20134;-80
2021/03/06 19:55:46;;;;;;;10.80;6.18;;;;;;;;;;5058493;28;20017;-80
2021/03/06 19:58:12;;;;;;;9.30;5.68;;;;;;;;;;5059919;28;20784;-79
2021/03/06 20:00:38;;;;;;;8.32;5.65;;;;;;;;;;5058197;28;20029;-81
2021/03/06 20:03:04;;;;;;;14.57;7.68;;;;;;;;;;5052350;28;20020;-80
2021/03/06 20:05:30;;;;;;;15.90;8.95;;;;;;;;;;5062667;28;20028;-80
2021/03/06 20:07:56;;;;;;;14.93;7.75;;;;;;;;;;5059507;28;20025;-82
2021/03/06 20:10:22;;;;;;;12.43;6.78;;;;;;;;;;5056857;28;20066;-82
2021/03/06 20:12:48;;;;;;;12.73;6.63;;;;;;;;;;5057365;28;20043;-80
2021/03/06 20:15:14;;;;;;;9.68;5.40;;;;;;;;;;5064746;28;20115;-81
2021/03/06 20:17:39;;;;;;;10.05;5.80;;;;;;;;;;5062662;28;20375;-81
2021/03/06 20:20:06;;;;;;;12.55;5.70;;;;;;;;;;5064073;28;20029;-81
2021/03/06 20:22:31;;;;;;;13.25;6.60;;;;;;;;;;5067590;28;20055;-80
2021/03/06 20:25:00;;;;;;;12.23;6.75;;;;;;;;;;5065856;28;20032;-80
2021/03/06 20:27:26;;;;;;;11.35;7.63;;;;;;;;;;5063807;28;20032;-80
2021/03/06 20:29:52;;;;;;;15.98;8.88;;;;;;;;;;5063116;28;20036;-81
2021/03/06 20:32:17;;;;;;;14.43;8.52;;;;;;;;;;5064038;28;20040;-81
2021/03/06 20:34:44;;;;;;;15.73;8.52;;;;;;;;;;5064736;28;20054;-80
2021/03/06 20:37:10;;;;;;;15.93;9.05;;;;;;;;;;5062880;28;20020;-79
2021/03/06 20:39:35;;;;;;;17.25;8.50;;;;;;;;;;5073511;28;20364;-80
2021/03/06 20:42:01;;;;;;;22.33;10.82;;;;;;;;;;5062467;28;20115;-81
2021/03/06 20:44:27;;;;;;;16.15;8.80;;;;;;;;;;5063668;28;20017;-81
2021/03/06 20:46:52;;;;;;;19.58;10.30;;;;;;;;;;5059046;28;20021;-81
2021/03/06 20:49:19;;;;;;;48.63;22.13;;;;;;;;;;5062117;28;20029;-81
2021/03/06 20:51:45;;;;;;;46.17;17.90;;;;;;;;;;5062809;28;20028;-81
2021/03/06 20:54:11;;;;;;;37.67;17.83;;;;;;;;;;5063287;28;20032;-81
2021/03/06 20:56:36;;;;;;;50.00;20.38;;;;;;;;;;5063358;28;20110;-80
2021/03/06 20:59:02;;;;;;;27.55;14.52;;;;;;;;;;5066455;28;20029;-79
2021/03/06 21:01:29;;;;;;;31.70;16.50;;;;;;;;;;5070555;28;20029;-80
2021/03/06 21:03:55;;;;;;;31.58;15.73;;;;;;;;;;5057788;28;20562;-80
2021/03/06 21:06:21;;;;;;;30.73;16.98;;;;;;;;;;5064703;28;20036;-80
2021/03/06 21:08:47;;;;;;;27.13;15.43;;;;;;;;;;5067137;28;20134;-80
2021/03/06 21:11:12;;;;;;;24.13;13.70;;;;;;;;;;5064228;28;20088;-80
2021/03/06 21:13:38;;;;;;;33.92;17.10;;;;;;;;;;5066321;28;20128;-80
2021/03/06 21:16:04;;;;;;;43.17;22.17;;;;;;;;;;5068984;28;20092;-80
2021/03/06 21:18:29;;;;;;;34.90;18.38;;;;;;;;;;5066409;28;20045;-80
2021/03/06 21:20:55;;;;;;;23.95;14.55;;;;;;;;;;5069352;28;20021;-79
2021/03/06 21:23:21;;;;;;;24.30;13.52;;;;;;;;;;5070569;28;20029;-79
2021/03/06 21:25:46;;;;;;;25.25;14.65;;;;;;;;;;5062676;28;20058;-78
2021/03/06 21:28:12;;;;;;;24.17;14.13;;;;;;;;;;5058617;28;20032;-80